• Join FlightAware (Why Join?)
  • Login
  • US Flag 
03:17PM EDT


 

Airport Tracker/Info


-or-


 

Live Flight TrackerFlight Track Log ✈ UAL4236 ✈ 17-Apr-2013 ✈ KELP - KIAH

Flight Track Log - Related Links

Times and Time Zones

All times are in EDT time to prevent confusion due to time zone crossing. See the UAL4236 flight status page for this flight to view local times or setup timezone preferences in your user account.

Time Position Orientation Groundspeed Altitude Reporting Facility
EDT Latitude Longitude Course Direction KTS MPH feet Rate Location/Type
12:36PM 31.7836 -106.4300 231° Southwest 188 216 5,700  Level Albuquerque Center
12:37PM 31.7608 -106.4125 147° Southeast 220 253 6,600 2,340 Climbing Albuquerque Center
12:37PM 31.7411 -106.3831 128° Southeast 240 276 8,100 2,460 Climbing Albuquerque Center
12:38PM 31.7164 -106.3342 121° Southeast 245 282 9,200 1,500 Climbing Albuquerque Center
12:39PM 31.6992 -106.3061 126° Southeast 286 329 9,800 1,440 Climbing Albuquerque Center
12:39PM 31.6694 -106.2536 124° Southeast 296 341 10,700 1,380 Climbing Albuquerque Center
12:40PM 31.7271 -105.7564 100° East  Level FlightAware Approximate
12:40PM 31.6608 -106.1406 95° East 352 405 12,100  Level Albuquerque Center
12:41PM 31.7122 -105.6340 96° East  Level FlightAware Approximate
12:41PM 31.6528 -106.0164 94° East 380 437 13,600  Level Albuquerque Center
12:42PM 31.6433 -105.8858 95° East 400 460 14,900 1,260 Climbing Albuquerque Center
12:43PM 31.6344 -105.7483 94° East 419 482 16,300 1,320 Climbing Albuquerque Center
12:44PM 31.6244 -105.6108 95° East 423 487 17,700 1,560 Climbing Albuquerque Center
12:45PM 31.6125 -105.4431 95° East 430 495 19,600 1,620 Climbing Albuquerque Center
12:46PM 31.6039 -105.3014 94° East 432 497 21,100 1,440 Climbing Albuquerque Center
12:47PM 31.5939 -105.1606 95° East 433 498 22,600 1,380 Climbing Albuquerque Center
12:48PM 31.5839 -105.0175 95° East 436 502 24,000 1,320 Climbing Albuquerque Center
12:50PM 31.5736 -104.8728 95° East 436 502 25,400 1,140 Climbing Albuquerque Center
12:51PM 31.5631 -104.7317 95° East 438 504 26,400 900 Climbing Albuquerque Center
12:52PM 31.5517 -104.5850 95° East 443 510 27,300 900 Climbing Albuquerque Center
12:53PM 31.5381 -104.4039 95° East 453 521 28,300 960 Climbing Albuquerque Center
12:54PM 31.5256 -104.2511 95° East 461 531 29,300 960 Climbing Albuquerque Center
12:55PM 31.5136 -104.0944 95° East 471 542 30,300 960 Climbing Albuquerque Center
12:56PM 31.5011 -103.9378 95° East 477 549 31,300 900 Climbing Albuquerque Center
12:57PM 31.4878 -103.7797 96° East 482 555 32,200 780 Climbing Albuquerque Center
12:58PM 31.4725 -103.5914 95° East 489 563 33,000 360 Climbing Albuquerque Center
12:59PM 31.4494 -103.4256 99° East 507 583 33,000  Level Albuquerque Center
01:00PM 31.4281 -103.2517 98° East 523 602 33,000  Level Albuquerque Center
01:01PM 31.4056 -103.0711 98° East 544 626 33,000  Level Albuquerque Center
01:02PM 31.3828 -102.8903 98° East 555 639 33,000 -60 Level Albuquerque Center
01:03PM 31.3600 -102.7061 98° East 568 654 32,900  Descending Albuquerque Center
01:04PM 31.3322 -102.4911 99° East 573 659 33,000  Climbing Albuquerque Center
01:05PM 31.3089 -102.3075 98° East 576 663 33,000  Level Albuquerque Center
01:06PM 31.2847 -102.1281 99° East 566 651 33,000  Level Albuquerque Center
01:07PM 31.2603 -101.9475 99° East 565 650 33,000  Level Albuquerque Center
01:08PM 31.2331 -101.7444 99° East 560 644 33,000  Level Albuquerque Center
01:10PM 31.1944 -101.4589 99° East 560 644 33,000  Level Houston Center
01:11PM 31.1658 -101.2517 99° East 558 642 33,000 -60 Level Houston Center
01:12PM 31.1414 -101.0714 99° East 561 646 32,900  Descending Houston Center
01:13PM 31.1169 -100.8922 99° East 560 644 33,000  Climbing Houston Center
01:14PM 31.0908 -100.7139 100° East 559 643 33,000 -120 Level Houston Center
01:15PM 31.0642 -100.5386 100° East 551 634 32,800 -780 Descending Houston Center
01:16PM 31.0392 -100.3667 100° East 538 619 31,500 -1,380 Descending Houston Center
01:17PM 31.0164 -100.2042 99° East 515 593 30,000 -1,320 Descending Houston Center
01:18PM 30.9861 -100.0117 100° East 505 581 28,900 -540 Descending Houston Center
01:19PM 30.9625 -99.8447 99° East 517 595 29,000 -60 Climbing Houston Center
01:20PM 30.9367 -99.6789 100° East 519 597 28,800 -540 Descending Houston Center
01:21PM 30.9319 -99.5150 92° East 511 588 27,900 -900 Descending Houston Center
01:22PM 30.9278 -99.3478 92° East 514 592 27,000 -480 Descending Houston Center
01:23PM 30.9247 -99.1833 91° East 508 585 27,000  Level Houston Center
01:24PM 30.9194 -98.9883 92° East 510 587 27,000  Level Houston Center
01:25PM 30.9150 -98.8228 92° East 507 583 27,000  Level Houston Center
01:26PM 30.9117 -98.6572 91° East 508 585 27,000  Level Houston Center
01:27PM 30.9067 -98.4919 92° East 509 586 27,000  Level Houston Center
01:28PM 30.9025 -98.3267 92° East 507 583 27,000  Level Houston Center
01:29PM 30.8972 -98.1600 92° East 512 589 27,000  Level Houston Center
01:30PM 30.8931 -97.9944 92° East 508 585 27,000  Level Houston Center
01:32PM 30.8867 -97.8292 93° East 509 586 27,000  Level Houston Center
01:33PM 30.8806 -97.6375 92° East 506 582 27,000  Level Houston Center
01:34PM 30.8744 -97.4728 92° East 508 585 27,000  Level Houston Center
01:35PM 30.8733 -97.3036 90° East 507 583 27,000  Level Houston Center
01:36PM 30.8908 -97.1489 82° East 523 602 27,000 -420 Level Houston Center
01:37PM 30.9133 -96.9667 82° East 481 554 26,200 -900 Descending Houston Center
01:38PM 30.9297 -96.8211 82° East 455 524 25,200 -1,020 Descending Houston Center
01:39PM 30.9467 -96.6781 82° East 443 510 24,200 -720 Descending Houston Center
01:40PM 30.9633 -96.5417 82° East 427 491 23,800 -900 Descending Houston Center
01:41PM 30.9333 -96.4161 106° East 409 471 22,400 -1,440 Descending Houston Center
01:42PM 30.8556 -96.3242 135° Southeast 400 460 20,900 -1,860 Descending Houston Center
01:43PM 30.7800 -96.2372 135° Southeast 382 440 18,600 -2,220 Descending Houston Center
01:44PM 30.7058 -96.1528 136° Southeast 371 427 16,400 -2,280 Descending Houston Center
01:45PM 30.6169 -96.0500 135° Southeast 383 441 14,000 -2,160 Descending Houston Center
01:45PM 30.5883 -96.0169 135° Southeast 382 440 13,400 -1,560 Descending Houston Center
01:46PM 30.5517 -95.9761 136° Southeast 367 422 12,400 -1,920 Descending Houston Center
01:47PM 30.5069 -95.9247 135° Southeast 321 369 11,100 -1,800 Descending Houston Center
01:47PM 30.4892 -95.9044 135° Southeast 320 368 10,600 -1,140 Descending Houston Center
01:48PM 30.4486 -95.8586 136° Southeast 265 305 10,000 -600 Descending Houston Center
01:48PM 30.4347 -95.8433 137° Southeast 278 320 10,000 -300 Level Houston Center
01:49PM 30.3869 -95.8247 161° South 248 285 9,700 -1,020 Descending Houston Center
01:49PM 30.3556 -95.8264 183° South 255 293 9,000 -1,500 Descending Houston Center
01:50PM 30.3139 -95.8308 185° South 253 291 8,200 -1,020 Descending Houston Center
01:50PM 30.2881 -95.8311 181° South 244 281 8,000 -240 Descending Houston Center
01:51PM 30.2469 -95.8336 183° South 244 281 8,000  Level Houston Center
01:51PM 30.2197 -95.8356 184° South 246 283 8,000 -120 Level Houston Center
01:52PM 30.1761 -95.8394 184° South 250 288 7,900 -540 Descending Houston Center
01:52PM 30.1544 -95.8217 145° Southeast 257 296 7,500 -1,380 Descending Houston Center
01:53PM 30.1194 -95.7906 142° Southeast 248 285 6,500 -1,560 Descending Houston Center
01:53PM 30.1011 -95.7711 137° Southeast 247 284 5,900 -1,620 Descending Houston Center
01:54PM 30.0722 -95.7308 130° Southeast 239 275 4,900 -1,560 Descending Houston Center
01:54PM 30.0528 -95.7003 126° Southeast 235 270 4,300 -780 Descending Houston Center
01:55PM 30.0383 -95.6794 129° Southeast 192 221 4,100 -300 Descending Houston Center
01:55PM 30.0222 -95.6533 125° Southeast 193 222 4,000 -120 Descending Houston Center
01:56PM 30.0067 -95.6300 128° Southeast 176 203 4,000  Level Houston Center
01:56PM 29.9950 -95.6053 119° Southeast 181 208 4,000 -300 Level Houston Center
01:57PM 29.9911 -95.5739 98° East 197 227 3,700 -720 Descending Houston Center
01:57PM 29.9928 -95.5439 86° East 192 221 3,300 -1,020 Descending Houston Center
01:58PM 29.9919 -95.5136 92° East 178 205 2,700 -1,020 Descending Houston Center
01:58PM 29.9936 -95.4858 86° East 186 214 2,300 -900 Descending Houston Center
01:59PM 29.9931 -95.4581 91° East 174 200 1,800 -1,200 Descending Houston Center